Gravon, das Spielerparadies Deutsche Version
Nick:
Password:
Register here

Home :: FAQ :: Getting started :: Launch Gravon :: Community :: Commands :: Team
:: Downloads
:: Gravopedia
:: Launch Gravon with Java
(for experts, Java required)

Jumbo Logo
Stratego-Logo StraDev Logo

Usage :: Loading/Saving setups :: Original game rules :: ISF more squares rule :: Additional options
Statistics :: StraDoS2 :: Battle results :: Player vs. player :: X-Files
Classic Stratego rating/ranking :: Classic Stratego challenge rating/ranking 2022 :: Personal challenge ranking statistics
Barrage Stratego rating/ranking :: Duell Stratego rating/ranking :: UL Stratego rating/ranking

Observed winning expactancy vs. opponent's rating, Kleier's rating

(x: Rating, 800-1800; y: winning expactancy, 0-1)
Red: Unfiltered, classes a 40 rating points
Blue/green: GAUSS filtered, sigma = 39
Gray: ELO's expected winning probability based on calculated Kleier rating
Observed winning expactancy vs. opponent's rating, WSC rating

Here again:
Gray: ELO's expected winning probability based on calculated WSC rating

Number of games vs. rating of opponents
The bars show the number of games played against opponents of a particular rating range, from 800 to 2000 in steps of 40 points

Statistics for maxroelofs

Last update (MEST): 2022-05-23 16:45


TimeOpponentOpponents rating (Kleier)Rating difference (Kleier)Opponents rating (WSC)Rating difference (WSC)Result
2020-04-10 14:52ruben871628-801757-119win
2020-04-10 15:48tomba1598-1111849-27win
2020-04-11 10:49henry1659-501853-23loss
2020-04-11 11:51swordfish1484-2241725-151win
2020-04-11 12:54tomba1598-1111849-27win
2020-04-11 13:26ruben871628-801757-119loss
2020-04-13 21:34sefirot1496-2131574-302loss
2020-04-15 14:49swordfish1484-2241725-151win
2020-04-15 15:14swordfish1484-2241725-151win
2020-04-15 15:37swordfish1484-2241725-151win
2020-04-15 18:24roy1394-3151500-376win
2020-04-16 13:47sefirot1496-2131574-302win
2020-04-16 14:05sefirot1496-2131574-302win
2020-04-16 14:28sefirot1496-2131574-302loss
2020-04-16 21:46roy1394-3151500-376draw
2020-04-21 10:25rave551464-2441578-298win
2020-04-21 11:05rave551464-2441578-298win
2020-04-21 16:28nikko1401-3071488-388loss
2020-04-22 09:33rave551464-2441578-298win
2020-04-22 10:18rave551464-2441578-298win
2020-04-22 15:07roy1394-3151500-376win
2020-05-01 13:15nikko1401-3071488-388win
2020-05-01 13:36piff25071449-2591623-253win
2020-05-02 19:19garulfo1680-291958+82win
2020-05-02 20:06grizzlybear1619-901878+2win
2020-05-02 20:39count_floyd1422-2871518-358win
2020-05-04 10:34rave551464-2441578-298win
2020-05-04 13:57rave551464-2441578-298loss
2020-05-04 14:30beastly1231493-2151786-90win
2020-05-05 10:58rave551464-2441578-298win
2020-05-05 11:31rave551464-2441578-298loss
2020-05-06 08:40robna1283-4251507-369win
2020-05-06 09:14rave551464-2441578-298win
2020-05-06 11:46robna1283-4251507-369win
2020-05-07 11:12beastly1231493-2151786-90win
2020-05-07 12:51swordfish1484-2241725-151win
2020-05-07 16:00rave551464-2441578-298win
2020-05-10 19:23swordfish1484-2241725-151win
2020-05-12 13:02ruben871628-801757-119win
2020-05-21 11:18nikko1401-3071488-388win
2020-05-21 11:40robna1283-4251507-369win
2020-05-21 17:30swordfish1484-2241725-151win
2020-05-24 15:26beastly1231493-2151786-90win
2020-05-24 15:41beastly1231493-2151786-90win
2020-05-24 16:07beastly1231493-2151786-90win
2020-05-24 18:20grizzlybear1619-901878+2win
2020-05-24 20:16akaboom1443-2651454-422win
2020-05-27 19:48akaboom1443-2651454-422win
2020-06-17 11:35nikko1401-3071488-388win
2020-06-17 16:29garulfo1680-291958+82win
2020-06-19 19:53freddykrueger1877+1692237+361loss
2020-06-26 15:45swordfish1484-2241725-151win
2020-06-29 20:26akaboom1443-2651454-422win
2020-06-29 21:02garulfo1680-291958+82loss
2020-06-29 21:23garulfo1680-291958+82loss
2020-06-30 15:33sefirot1496-2131574-302win
2020-07-03 20:22akaboom1443-2651454-422win
2020-07-05 15:24konstandinos.m1557-1521695-181win
2020-07-06 18:14beastly1231493-2151786-90win
2020-07-06 18:30beastly1231493-2151786-90win
2020-07-08 15:15swordfish1484-2241725-151win
2020-07-26 13:56zwille1451-2571529-347loss
2020-07-26 14:27robna1283-4251507-369win
2020-08-15 10:29henry1659-501853-23win
2020-08-15 11:13losermaker1741+321992+116loss
2020-09-06 15:25ironshield1686-221967+91win
2020-09-22 19:21dimkar1419-2891693-183loss
2020-11-28 10:38yellowhat1615-941630-246win
2020-11-28 11:20ambiorix1616-931946+70win
2020-11-28 13:17ruben871628-801757-119win
2020-11-28 13:50garulfo1680-291958+82win
2020-11-28 14:11playa11721+122039+163win
2020-12-12 10:54garulfo1680-291958+82loss
2020-12-12 11:26playa11721+122039+163loss
2020-12-12 12:50ambiorix1616-931946+70win
2020-12-12 13:47ruben871628-801757-119win
2020-12-12 17:53robna1283-4251507-369win
2020-12-13 15:22robna1283-4251507-369loss
2020-12-15 18:44ironshield1686-221967+91loss
2020-12-15 21:26ambiorix1616-931946+70draw
2020-12-16 13:41garulfo1680-291958+82loss
2020-12-17 17:25swordfish1484-2241725-151loss
2020-12-17 17:56garulfo1680-291958+82loss
2020-12-17 18:48garulfo1680-291958+82win
2020-12-18 23:09garulfo1680-291958+82win
2020-12-19 00:04garulfo1680-291958+82draw
2020-12-19 01:04garulfo1680-291958+82draw
2020-12-19 13:19mojo19671568-1411770-106win
2020-12-19 13:52garulfo1680-291958+82win
2020-12-19 14:54garulfo1680-291958+82win
2020-12-21 15:37rave551464-2441578-298win
2020-12-29 15:27garulfo1680-291958+82win
2020-12-30 13:09rave551464-2441578-298loss
2021-01-01 14:01robna1283-4251507-369win
2021-01-01 14:26beastly1231493-2151786-90win
2021-01-01 15:08beastly1231493-2151786-90loss
2021-01-04 14:09rave551464-2441578-298loss
2021-01-04 18:49jackie021472-2371722-154win
2021-01-04 19:14jackie021472-2371722-154win
2021-01-06 16:17garulfo1680-291958+82loss
2021-01-07 17:03maartenleysen1179-5301290-586win
2021-01-18 20:21gpet01576-1331883+7loss
2021-01-23 12:32templaterex1229-4791363-513win
2021-01-23 13:39tomba1598-1111849-27win
2021-01-23 14:55garulfo1680-291958+82draw
2021-01-23 15:48zach211741+332140+264win
2021-01-23 16:56freddykrueger1877+1692237+361loss
2021-01-29 20:23knickles1448-2611561-315win
2021-01-29 20:42jossy1451-2571515-361win
2021-01-29 21:33jackie021472-2371722-154draw
2021-01-29 22:14dimkar1419-2891693-183win
2021-01-29 22:40garulfo1680-291958+82loss
2021-03-02 15:29blacksheep1413-2961476-400win
2021-03-20 11:50akaboom1443-2651454-422win
2021-03-20 12:50gpet01576-1331883+7loss
2021-03-20 14:27mirmidonas1525-1841655-221loss
2021-03-20 15:25lodewijk14de987-7221196-680win
2021-03-20 16:50wnehme1594-1151799-77draw
2021-03-20 17:31beastly1231493-2151786-90win
2021-11-20 16:13garulfo1680-291958+82win
2021-11-20 22:00jackie021472-2371722-154win
2021-11-20 22:53garulfo1680-291958+82draw

Hier geht es in die Welt von Gravon.



Valid HTML 4.0! Webmaster Terms of service :: Impressum